Time;durP1;ratioP1;P1;durP2;ratioP2;P2;SDS_P1;SDS_P2;PMS_P1;PMS_P2;Temp;Humidity;BMP_temperature;BMP_pressure;BME280_temperature;BME280_humidity;BME280_pressure;Samples;Min_cycle;Max_cycle;Signal;HPM_P1;HPM_P2
2022/12/07 00:02:05;;;;;;;7.28;3.33;;;;;;;;;;5053373;28;20072;-67
2022/12/07 00:04:30;;;;;;;5.50;3.08;;;;;;;;;;5035833;28;20041;-66
2022/12/07 00:06:56;;;;;;;6.13;2.70;;;;;;;;;;5048153;28;20036;-67
2022/12/07 00:09:21;;;;;;;4.38;2.60;;;;;;;;;;5035499;28;20040;-67
2022/12/07 00:11:51;;;;;;;4.63;2.65;;;;;;;;;;5034379;28;20481;-67
2022/12/07 00:14:17;;;;;;;5.50;2.90;;;;;;;;;;5053275;28;20033;-68
2022/12/07 00:16:43;;;;;;;7.80;2.95;;;;;;;;;;5019521;28;20056;-66
2022/12/07 00:19:09;;;;;;;5.10;2.58;;;;;;;;;;5015060;28;20044;-67
2022/12/07 00:21:35;;;;;;;5.32;2.78;;;;;;;;;;5015314;28;20072;-66
2022/12/07 00:24:01;;;;;;;6.18;2.53;;;;;;;;;;5015397;28;20514;-67
2022/12/07 00:26:31;;;;;;;7.25;2.70;;;;;;;;;;5038136;28;20037;-67
2022/12/07 00:29:01;;;;;;;4.22;2.75;;;;;;;;;;5051331;28;20037;-67
2022/12/07 00:31:29;;;;;;;6.03;2.95;;;;;;;;;;5052644;28;20068;-67
2022/12/07 00:33:55;;;;;;;6.38;2.65;;;;;;;;;;5034823;28;20371;-66
2022/12/07 00:36:21;;;;;;;5.40;3.15;;;;;;;;;;5051750;28;20037;-66
2022/12/07 00:38:47;;;;;;;4.68;2.30;;;;;;;;;;5034831;28;20094;-66
2022/12/07 00:41:14;;;;;;;3.75;2.50;;;;;;;;;;5034299;28;20452;-66
2022/12/07 00:43:40;;;;;;;6.57;2.58;;;;;;;;;;5018174;28;20278;-66
2022/12/07 00:46:06;;;;;;;9.63;3.13;;;;;;;;;;5046195;28;20029;-66
2022/12/07 00:48:32;;;;;;;6.35;3.00;;;;;;;;;;5032480;28;20509;-66
2022/12/07 00:50:57;;;;;;;4.50;2.55;;;;;;;;;;5032515;28;20129;-67
2022/12/07 00:53:23;;;;;;;5.22;2.80;;;;;;;;;;5032420;28;20441;-67
2022/12/07 00:55:49;;;;;;;7.05;2.88;;;;;;;;;;5029329;28;20045;-66
2022/12/07 00:58:15;;;;;;;4.43;2.90;;;;;;;;;;5052059;28;20047;-66
2022/12/07 01:00:41;;;;;;;5.45;2.53;;;;;;;;;;5017969;28;20041;-66
2022/12/07 01:03:08;;;;;;;5.22;3.00;;;;;;;;;;5034606;28;20119;-66
2022/12/07 01:05:33;;;;;;;9.02;3.33;;;;;;;;;;5046474;28;20586;-67
2022/12/07 01:07:59;;;;;;;5.85;3.05;;;;;;;;;;5020803;28;20131;-67
2022/12/07 01:10:25;;;;;;;5.75;3.08;;;;;;;;;;5052534;28;20405;-67
2022/12/07 01:12:51;;;;;;;4.82;3.03;;;;;;;;;;5023602;28;20034;-67
2022/12/07 01:15:16;;;;;;;8.93;3.40;;;;;;;;;;5032789;28;20049;-67
2022/12/07 01:17:42;;;;;;;6.57;2.83;;;;;;;;;;5032320;28;20641;-66
2022/12/07 01:20:07;;;;;;;5.38;2.72;;;;;;;;;;5052017;28;20561;-66
2022/12/07 01:22:37;;;;;;;3.03;2.50;;;;;;;;;;5051715;28;20040;-67
2022/12/07 01:25:03;;;;;;;4.82;2.67;;;;;;;;;;5032439;28;20504;-66
2022/12/07 01:27:29;;;;;;;3.88;2.92;;;;;;;;;;5018676;28;20041;-66
2022/12/07 01:29:54;;;;;;;6.25;3.05;;;;;;;;;;5014371;28;20577;-66
2022/12/07 01:32:20;;;;;;;7.75;2.78;;;;;;;;;;5032111;28;20562;-66
2022/12/07 01:34:47;;;;;;;5.38;2.83;;;;;;;;;;5016986;28;20510;-67
2022/12/07 01:37:13;;;;;;;4.85;2.78;;;;;;;;;;5033889;28;20037;-66
2022/12/07 01:39:38;;;;;;;3.30;2.55;;;;;;;;;;5033774;28;20125;-67
2022/12/07 01:42:04;;;;;;;6.57;3.35;;;;;;;;;;5051547;28;20040;-65
2022/12/07 01:44:31;;;;;;;6.93;2.75;;;;;;;;;;5051152;28;20032;-64
2022/12/07 01:46:58;;;;;;;4.95;2.90;;;;;;;;;;5030988;28;20049;-66
2022/12/07 01:49:27;;;;;;;6.47;3.45;;;;;;;;;;5031726;28;20048;-67
2022/12/07 01:51:54;;;;;;;5.82;3.30;;;;;;;;;;5013861;28;20518;-67
2022/12/07 01:54:20;;;;;;;4.82;2.83;;;;;;;;;;5032779;28;20037;-65
2022/12/07 01:56:49;;;;;;;6.80;2.97;;;;;;;;;;5031382;28;20513;-67
2022/12/07 01:59:16;;;;;;;5.90;3.17;;;;;;;;;;5031494;28;20430;-67
2022/12/07 02:01:42;;;;;;;5.93;3.40;;;;;;;;;;5032982;28;20033;-66
2022/12/07 02:04:08;;;;;;;6.93;2.90;;;;;;;;;;5013977;28;20116;-67
2022/12/07 02:06:35;;;;;;;4.57;2.95;;;;;;;;;;5031525;28;20046;-65
2022/12/07 02:09:00;;;;;;;6.18;3.33;;;;;;;;;;5031425;28;20037;-66
2022/12/07 02:11:26;;;;;;;7.93;3.33;;;;;;;;;;5013592;28;20567;-66
2022/12/07 02:13:52;;;;;;;6.05;3.33;;;;;;;;;;5013518;28;20499;-66
2022/12/07 02:16:35;;;;;;;6.60;3.45;;;;;;;;;;4997138;28;20506;-66
2022/12/07 02:19:04;;;;;;;7.97;3.38;;;;;;;;;;5013498;28;20034;-67
2022/12/07 02:21:38;;;;;;;6.70;3.45;;;;;;;;;;5031159;28;20387;-65
2022/12/07 02:24:10;;;;;;;8.38;3.30;;;;;;;;;;5051335;28;20033;-66
2022/12/07 02:26:54;;;;;;;8.07;3.42;;;;;;;;;;5049898;28;20049;-67
2022/12/07 02:29:25;;;;;;;5.85;3.03;;;;;;;;;;5041821;28;20405;-66
2022/12/07 02:31:57;;;;;;;5.00;3.38;;;;;;;;;;5050986;28;20037;-66
2022/12/07 02:34:31;;;;;;;5.60;3.20;;;;;;;;;;5050370;28;20040;-66
2022/12/07 02:37:00;;;;;;;8.95;3.75;;;;;;;;;;5033199;28;20080;-66
2022/12/07 02:39:37;;;;;;;4.15;2.90;;;;;;;;;;5046534;28;20045;-66
2022/12/07 02:42:09;;;;;;;7.75;3.15;;;;;;;;;;5031037;28;20042;-66
2022/12/07 02:44:35;;;;;;;8.07;3.80;;;;;;;;;;5031273;28;20044;-67
2022/12/07 02:47:02;;;;;;;10.10;3.00;;;;;;;;;;5013325;28;20061;-68
2022/12/07 02:49:28;;;;;;;11.35;3.40;;;;;;;;;;5013323;28;20041;-68
2022/12/07 02:51:54;;;;;;;6.35;3.35;;;;;;;;;;5030813;28;20045;-67
2022/12/07 02:54:20;;;;;;;5.65;3.17;;;;;;;;;;5013720;28;20040;-67
2022/12/07 02:56:49;;;;;;;5.75;3.53;;;;;;;;;;5050961;28;20033;-68
2022/12/07 02:59:20;;;;;;;7.07;3.40;;;;;;;;;;5035632;28;20028;-67
2022/12/07 03:01:49;;;;;;;7.18;3.53;;;;;;;;;;5036671;28;20617;-67
2022/12/07 03:04:21;;;;;;;8.38;3.58;;;;;;;;;;5025824;28;20038;-67
2022/12/07 03:06:53;;;;;;;6.07;3.63;;;;;;;;;;5034864;28;20029;-68
2022/12/07 03:09:27;;;;;;;6.32;3.25;;;;;;;;;;5016794;28;20037;-67
2022/12/07 03:12:00;;;;;;;6.85;3.63;;;;;;;;;;5016605;28;20033;-68
2022/12/07 03:14:30;;;;;;;8.70;4.25;;;;;;;;;;5016952;28;20038;-66
2022/12/07 03:17:25;;;;;;;8.25;3.65;;;;;;;;;;5000289;28;20037;-68
2022/12/07 03:19:53;;;;;;;9.65;4.03;;;;;;;;;;5022570;28;20131;-67
2022/12/07 03:22:19;;;;;;;8.85;3.35;;;;;;;;;;5016555;28;20046;-67
2022/12/07 03:25:04;;;;;;;8.73;3.72;;;;;;;;;;5016793;28;20043;-67
2022/12/07 03:27:42;;;;;;;7.70;3.25;;;;;;;;;;5034498;28;20041;-67
2022/12/07 03:30:14;;;;;;;7.18;3.60;;;;;;;;;;5000701;28;20036;-68
2022/12/07 03:32:43;;;;;;;7.07;3.22;;;;;;;;;;5033447;28;20132;-66
2022/12/07 03:35:31;;;;;;;7.63;3.22;;;;;;;;;;5036151;28;20047;-68
2022/12/07 03:37:59;;;;;;;8.10;4.25;;;;;;;;;;5036416;28;20489;-67
2022/12/07 03:40:25;;;;;;;5.10;2.85;;;;;;;;;;5021673;28;20507;-66
2022/12/07 03:42:51;;;;;;;6.43;3.80;;;;;;;;;;5033911;28;20043;-68
2022/12/07 03:45:17;;;;;;;6.20;3.50;;;;;;;;;;5016126;28;20486;-67
2022/12/07 03:47:43;;;;;;;5.57;3.25;;;;;;;;;;5028707;28;20065;-67
2022/12/07 03:50:08;;;;;;;6.03;3.13;;;;;;;;;;5036121;28;20043;-67
2022/12/07 03:52:43;;;;;;;7.57;3.35;;;;;;;;;;5053829;28;20048;-67
2022/12/07 03:55:20;;;;;;;7.72;3.88;;;;;;;;;;5032663;28;20091;-67
2022/12/07 03:57:47;;;;;;;6.13;3.25;;;;;;;;;;5033822;28;20478;-69
2022/12/07 04:00:13;;;;;;;6.05;3.35;;;;;;;;;;5015778;28;20128;-68
2022/12/07 04:02:39;;;;;;;9.85;3.50;;;;;;;;;;5033621;28;20128;-67
2022/12/07 04:05:05;;;;;;;8.73;3.85;;;;;;;;;;5015471;28;20491;-68
2022/12/07 04:07:31;;;;;;;7.45;3.20;;;;;;;;;;5034107;28;20360;-67
2022/12/07 04:09:57;;;;;;;6.63;3.30;;;;;;;;;;5015319;28;20476;-69
2022/12/07 04:12:22;;;;;;;6.82;3.17;;;;;;;;;;4999335;28;20132;-68
2022/12/07 04:14:48;;;;;;;6.40;3.25;;;;;;;;;;5034359;28;20144;-68
2022/12/07 04:17:13;;;;;;;5.40;2.97;;;;;;;;;;4999138;28;20043;-68
2022/12/07 04:19:39;;;;;;;7.43;2.80;;;;;;;;;;5015619;28;20099;-68
2022/12/07 04:22:05;;;;;;;8.45;3.50;;;;;;;;;;5015408;28;20076;-67
2022/12/07 04:24:30;;;;;;;6.63;2.92;;;;;;;;;;5033285;28;20474;-68
2022/12/07 04:26:56;;;;;;;4.97;2.90;;;;;;;;;;5032986;28;20079;-68
2022/12/07 04:29:21;;;;;;;6.20;3.50;;;;;;;;;;5033258;28;20037;-69
2022/12/07 04:31:47;;;;;;;6.80;3.60;;;;;;;;;;5032955;28;20045;-69
2022/12/07 04:34:13;;;;;;;6.80;3.63;;;;;;;;;;5015364;28;20045;-68
2022/12/07 04:36:39;;;;;;;11.32;3.47;;;;;;;;;;4999539;28;20045;-69
2022/12/07 04:39:05;;;;;;;10.57;3.13;;;;;;;;;;4998753;28;20036;-69
2022/12/07 04:41:31;;;;;;;13.07;3.72;;;;;;;;;;5014934;28;20520;-68
2022/12/07 04:44:07;;;;;;;8.20;3.53;;;;;;;;;;5039019;28;20116;-67
2022/12/07 04:46:32;;;;;;;8.15;2.80;;;;;;;;;;5034737;28;20091;-69
2022/12/07 04:49:09;;;;;;;4.90;2.72;;;;;;;;;;5052737;28;20060;-68
2022/12/07 04:51:34;;;;;;;6.72;3.28;;;;;;;;;;5052511;28;20033;-71
2022/12/07 04:54:00;;;;;;;5.50;3.38;;;;;;;;;;5052544;28;20086;-68
2022/12/07 04:56:25;;;;;;;8.02;3.92;;;;;;;;;;5050417;28;20039;-70
2022/12/07 04:58:52;;;;;;;6.45;3.60;;;;;;;;;;5034677;28;20078;-68
2022/12/07 05:01:18;;;;;;;6.45;3.60;;;;;;;;;;5051494;28;20070;-70
2022/12/07 05:03:43;;;;;;;6.43;4.50;;;;;;;;;;5050326;28;20425;-68
2022/12/07 05:06:09;;;;;;;7.63;3.25;;;;;;;;;;5052110;28;20051;-69
2022/12/07 05:08:35;;;;;;;9.75;4.38;;;;;;;;;;5052414;28;20059;-70
2022/12/07 05:11:02;;;;;;;10.38;4.18;;;;;;;;;;5052370;28;20032;-68
2022/12/07 05:13:28;;;;;;;11.20;4.82;;;;;;;;;;5034035;28;20040;-69
2022/12/07 05:15:53;;;;;;;4.72;3.17;;;;;;;;;;5015699;28;20063;-69
2022/12/07 05:18:19;;;;;;;14.13;4.07;;;;;;;;;;5051061;28;20119;-70
2022/12/07 05:20:45;;;;;;;6.88;3.92;;;;;;;;;;5016923;28;20387;-69
2022/12/07 05:23:11;;;;;;;7.38;3.80;;;;;;;;;;5017279;28;20032;-68
2022/12/07 05:25:37;;;;;;;8.80;3.90;;;;;;;;;;5015300;28;20052;-67
2022/12/07 05:28:03;;;;;;;10.25;5.18;;;;;;;;;;5040779;28;20116;-67
2022/12/07 05:30:31;;;;;;;7.82;4.20;;;;;;;;;;5033948;28;20064;-67
2022/12/07 05:32:58;;;;;;;13.15;4.72;;;;;;;;;;5048726;28;20049;-67
2022/12/07 05:35:24;;;;;;;11.05;4.32;;;;;;;;;;5034254;28;20045;-73
2022/12/07 05:37:49;;;;;;;12.27;4.82;;;;;;;;;;5033851;28;20037;-72
2022/12/07 05:40:15;;;;;;;11.43;4.55;;;;;;;;;;5017460;28;20383;-70
2022/12/07 05:42:41;;;;;;;13.05;4.13;;;;;;;;;;5017198;28;20080;-67
2022/12/07 05:45:07;;;;;;;9.18;4.13;;;;;;;;;;5033456;28;20044;-67
2022/12/07 05:47:38;;;;;;;8.55;4.38;;;;;;;;;;5050344;28;20057;-66
2022/12/07 05:50:05;;;;;;;13.93;5.47;;;;;;;;;;5051891;28;20037;-67
2022/12/07 05:52:31;;;;;;;9.70;4.20;;;;;;;;;;5049119;28;20525;-67
2022/12/07 05:54:57;;;;;;;9.45;4.28;;;;;;;;;;5050518;28;20037;-66
2022/12/07 05:57:22;;;;;;;11.98;4.25;;;;;;;;;;5054422;28;20041;-66
2022/12/07 05:59:48;;;;;;;6.75;4.18;;;;;;;;;;5051168;28;20037;-69
2022/12/07 06:02:15;;;;;;;7.47;4.00;;;;;;;;;;5049589;28;20033;-68
2022/12/07 06:04:42;;;;;;;11.68;4.80;;;;;;;;;;5049769;28;20033;-65
2022/12/07 06:07:08;;;;;;;10.32;4.30;;;;;;;;;;5050155;28;20061;-68
2022/12/07 06:09:35;;;;;;;10.55;4.50;;;;;;;;;;5032475;28;20029;-67
2022/12/07 06:14:45;;;;;;;11.02;4.45;;;;;;;;;;5048342;28;20029;-65
2022/12/07 06:17:12;;;;;;;11.63;3.80;;;;;;;;;;5045686;28;20035;-65
2022/12/07 06:19:39;;;;;;;7.47;3.80;;;;;;;;;;5020818;28;20122;-64
2022/12/07 06:22:05;;;;;;;9.27;4.45;;;;;;;;;;5028792;28;20083;-65
2022/12/07 06:24:32;;;;;;;6.20;3.60;;;;;;;;;;5028175;28;20471;-65
2022/12/07 06:26:58;;;;;;;6.93;3.88;;;;;;;;;;5012887;28;20120;-66
2022/12/07 06:29:31;;;;;;;12.45;4.53;;;;;;;;;;5040170;28;20065;-65
2022/12/07 06:31:57;;;;;;;8.88;4.00;;;;;;;;;;5046822;28;20091;-65
2022/12/07 06:34:23;;;;;;;8.18;4.05;;;;;;;;;;5049290;28;20076;-66
2022/12/07 06:36:54;;;;;;;7.13;4.50;;;;;;;;;;5050478;28;20052;-66
2022/12/07 06:39:21;;;;;;;7.50;4.22;;;;;;;;;;5032873;28;20037;-66
2022/12/07 06:41:47;;;;;;;10.00;4.32;;;;;;;;;;5037677;28;20120;-64
2022/12/07 06:44:12;;;;;;;7.88;4.38;;;;;;;;;;5051617;28;20115;-65
2022/12/07 06:46:38;;;;;;;7.00;3.72;;;;;;;;;;5049944;28;20497;-66
2022/12/07 06:49:04;;;;;;;11.43;5.65;;;;;;;;;;5049793;28;20532;-65
2022/12/07 06:51:30;;;;;;;6.18;3.75;;;;;;;;;;5032830;28;20041;-66
2022/12/07 06:53:56;;;;;;;8.65;4.30;;;;;;;;;;5049877;28;20462;-67
2022/12/07 06:56:22;;;;;;;8.02;3.95;;;;;;;;;;5031925;28;20064;-65
2022/12/07 06:58:48;;;;;;;8.80;4.35;;;;;;;;;;5000446;28;20036;-66
2022/12/07 07:01:15;;;;;;;9.65;4.22;;;;;;;;;;5049536;28;20448;-66
2022/12/07 07:03:41;;;;;;;8.05;4.55;;;;;;;;;;5049788;28;20494;-66
2022/12/07 07:06:07;;;;;;;10.80;5.18;;;;;;;;;;5031303;28;20033;-64
2022/12/07 07:08:33;;;;;;;10.38;5.13;;;;;;;;;;5003090;28;20030;-64
2022/12/07 07:10:58;;;;;;;13.32;5.32;;;;;;;;;;5011526;28;20068;-64
2022/12/07 07:13:24;;;;;;;8.80;4.80;;;;;;;;;;5032058;28;20056;-64
2022/12/07 07:15:50;;;;;;;10.75;5.35;;;;;;;;;;5032346;28;20120;-66
2022/12/07 07:18:15;;;;;;;11.73;5.78;;;;;;;;;;5030437;28;20085;-64
2022/12/07 07:20:41;;;;;;;9.48;5.35;;;;;;;;;;5038075;28;20478;-67
2022/12/07 07:23:08;;;;;;;10.80;5.60;;;;;;;;;;5024112;28;20037;-65
2022/12/07 07:25:36;;;;;;;8.68;5.07;;;;;;;;;;4999886;28;20110;-67
2022/12/07 07:28:01;;;;;;;10.82;4.93;;;;;;;;;;5029822;28;20603;-68
2022/12/07 07:30:27;;;;;;;14.27;5.65;;;;;;;;;;5049488;28;20033;-66
2022/12/07 07:32:59;;;;;;;12.48;6.20;;;;;;;;;;5031860;28;20402;-70
2022/12/07 07:35:26;;;;;;;10.38;5.35;;;;;;;;;;5009291;28;20061;-70
2022/12/07 07:37:51;;;;;;;12.45;6.03;;;;;;;;;;5011997;28;20042;-67
2022/12/07 07:40:17;;;;;;;15.18;5.40;;;;;;;;;;5029775;28;20103;-69
2022/12/07 07:42:43;;;;;;;12.18;6.47;;;;;;;;;;5011535;28;20514;-69
2022/12/07 07:45:09;;;;;;;11.30;6.38;;;;;;;;;;5028779;28;20049;-70
2022/12/07 07:47:35;;;;;;;12.23;5.60;;;;;;;;;;5007405;28;20077;-71
2022/12/07 07:50:01;;;;;;;8.95;5.35;;;;;;;;;;5007269;28;20045;-70
2022/12/07 07:52:29;;;;;;;9.55;5.13;;;;;;;;;;5008309;28;20038;-70
2022/12/07 07:54:55;;;;;;;12.63;6.07;;;;;;;;;;4989619;28;20528;-70
2022/12/07 07:57:20;;;;;;;8.57;5.10;;;;;;;;;;5025024;28;20137;-70
2022/12/07 07:59:46;;;;;;;10.25;5.35;;;;;;;;;;5024707;28;20136;-68
2022/12/07 08:02:14;;;;;;;11.05;5.72;;;;;;;;;;5023424;28;20030;-69
2022/12/07 08:04:40;;;;;;;11.90;5.70;;;;;;;;;;5025242;28;20048;-69
2022/12/07 08:07:05;;;;;;;12.30;5.90;;;;;;;;;;5025218;28;20124;-68
2022/12/07 08:09:31;;;;;;;10.70;5.57;;;;;;;;;;5021815;28;20139;-67
2022/12/07 08:11:57;;;;;;;11.05;5.47;;;;;;;;;;5006983;28;20069;-68
2022/12/07 08:14:23;;;;;;;12.45;5.38;;;;;;;;;;5027038;28;20042;-68
2022/12/07 08:16:49;;;;;;;12.57;5.40;;;;;;;;;;5044549;28;20095;-68
2022/12/07 08:19:16;;;;;;;8.32;5.00;;;;;;;;;;5010460;28;20038;-68
2022/12/07 08:21:42;;;;;;;10.13;4.63;;;;;;;;;;5028329;28;20052;-69
2022/12/07 08:24:07;;;;;;;8.38;5.10;;;;;;;;;;5032269;28;20037;-68
2022/12/07 08:26:33;;;;;;;10.75;5.15;;;;;;;;;;5019590;28;20383;-71
2022/12/07 08:28:59;;;;;;;10.30;5.20;;;;;;;;;;5025815;28;20041;-69
2022/12/07 08:31:28;;;;;;;6.07;3.95;;;;;;;;;;5029307;28;20091;-68
2022/12/07 08:33:54;;;;;;;10.10;5.10;;;;;;;;;;5026309;28;20085;-68
2022/12/07 08:36:21;;;;;;;14.10;5.75;;;;;;;;;;5025831;28;20033;-68
2022/12/07 08:38:47;;;;;;;7.60;4.43;;;;;;;;;;5030319;28;20041;-69
2022/12/07 08:41:12;;;;;;;13.43;6.13;;;;;;;;;;5027394;28;20376;-68
2022/12/07 08:43:38;;;;;;;14.70;5.90;;;;;;;;;;5044524;28;20040;-68
2022/12/07 08:46:03;;;;;;;12.45;6.18;;;;;;;;;;5011698;28;20045;-68
2022/12/07 08:48:30;;;;;;;10.05;5.32;;;;;;;;;;5026755;28;20477;-69
2022/12/07 08:50:56;;;;;;;16.13;5.15;;;;;;;;;;5027095;28;20037;-69
2022/12/07 08:53:22;;;;;;;10.13;4.32;;;;;;;;;;5028119;28;20033;-67
2022/12/07 08:55:47;;;;;;;8.05;4.85;;;;;;;;;;5027953;28;20498;-68
2022/12/07 08:58:18;;;;;;;12.63;4.85;;;;;;;;;;5028237;28;20406;-69
2022/12/07 09:00:47;;;;;;;10.35;5.00;;;;;;;;;;5012465;28;20115;-67
2022/12/07 09:03:13;;;;;;;11.82;5.38;;;;;;;;;;5027626;28;20445;-70
2022/12/07 09:05:39;;;;;;;12.02;5.30;;;;;;;;;;5027771;28;20032;-69
2022/12/07 09:08:08;;;;;;;8.57;4.90;;;;;;;;;;5043788;28;20038;-71
2022/12/07 09:10:40;;;;;;;9.88;5.43;;;;;;;;;;5010257;28;20029;-68
2022/12/07 09:13:05;;;;;;;16.00;5.60;;;;;;;;;;5028987;28;20026;-69
2022/12/07 09:15:31;;;;;;;17.30;6.43;;;;;;;;;;5029787;28;20116;-71
2022/12/07 09:17:59;;;;;;;13.30;6.05;;;;;;;;;;5000415;28;20241;-69
2022/12/07 09:20:27;;;;;;;9.80;5.60;;;;;;;;;;4992075;28;20050;-70
2022/12/07 09:22:54;;;;;;;10.85;5.43;;;;;;;;;;5014656;28;20042;-68
2022/12/07 09:25:21;;;;;;;14.18;6.07;;;;;;;;;;4991579;28;20040;-70
2022/12/07 09:27:48;;;;;;;17.25;5.60;;;;;;;;;;5009405;28;20061;-71
2022/12/07 09:30:15;;;;;;;14.35;6.43;;;;;;;;;;5001864;28;20037;-70
2022/12/07 09:32:41;;;;;;;13.40;5.88;;;;;;;;;;5027386;28;20387;-70
2022/12/07 09:35:19;;;;;;;14.15;6.40;;;;;;;;;;5029036;28;20491;-71
2022/12/07 09:37:46;;;;;;;13.25;6.63;;;;;;;;;;4992287;28;20060;-71
2022/12/07 09:40:13;;;;;;;11.15;5.70;;;;;;;;;;4990597;28;20038;-70
2022/12/07 09:42:52;;;;;;;11.10;6.03;;;;;;;;;;4989663;28;20041;-72
2022/12/07 09:45:33;;;;;;;11.30;5.63;;;;;;;;;;5006532;28;20037;-71
2022/12/07 09:48:02;;;;;;;10.20;5.30;;;;;;;;;;5038037;28;20069;-71
2022/12/07 09:50:28;;;;;;;9.00;4.80;;;;;;;;;;4990044;28;20041;-70
2022/12/07 09:53:08;;;;;;;8.02;4.43;;;;;;;;;;4995680;28;20073;-68
2022/12/07 09:55:39;;;;;;;12.65;5.00;;;;;;;;;;4973247;28;20038;-72
2022/12/07 09:58:28;;;;;;;13.30;4.78;;;;;;;;;;4972088;28;20030;-73
2022/12/07 10:01:01;;;;;;;8.15;4.45;;;;;;;;;;4973027;28;20086;-70
2022/12/07 10:03:31;;;;;;;8.52;4.53;;;;;;;;;;5007117;28;20037;-72
2022/12/07 10:05:58;;;;;;;8.15;4.25;;;;;;;;;;5006151;28;20471;-70
2022/12/07 10:08:25;;;;;;;12.60;5.25;;;;;;;;;;4990530;28;20042;-70
2022/12/07 10:11:10;;;;;;;14.40;4.70;;;;;;;;;;4990576;28;20041;-70
2022/12/07 10:14:13;;;;;;;15.35;5.60;;;;;;;;;;4903335;29;20044;-73
2022/12/07 10:16:55;;;;;;;10.02;4.88;;;;;;;;;;4907965;29;20036;-73
2022/12/07 10:19:35;;;;;;;14.57;5.32;;;;;;;;;;4892429;29;20040;-73
2022/12/07 10:22:20;;;;;;;13.18;4.95;;;;;;;;;;4892751;29;20039;-73
2022/12/07 10:25:32;;;;;;;11.45;5.35;;;;;;;;;;4893059;29;20147;-71
2022/12/07 10:28:23;;;;;;;13.23;6.03;;;;;;;;;;4861366;29;20048;-72
2022/12/07 10:30:57;;;;;;;10.05;5.82;;;;;;;;;;4891768;29;20052;-70
2022/12/07 10:33:49;;;;;;;17.92;7.10;;;;;;;;;;4891212;29;20051;-73
2022/12/07 10:36:18;;;;;;;10.60;5.47;;;;;;;;;;4906735;29;20087;-70
2022/12/07 10:38:46;;;;;;;15.20;6.20;;;;;;;;;;4877032;29;20037;-71
2022/12/07 10:41:12;;;;;;;14.85;7.03;;;;;;;;;;4908408;29;20462;-71
2022/12/07 10:43:46;;;;;;;11.50;5.97;;;;;;;;;;4874102;29;20041;-70
2022/12/07 10:46:30;;;;;;;14.85;6.45;;;;;;;;;;4891389;29;20048;-70
2022/12/07 10:49:09;;;;;;;13.20;6.00;;;;;;;;;;4891811;29;20407;-71
2022/12/07 10:51:50;;;;;;;16.92;6.82;;;;;;;;;;4890550;29;20175;-72
2022/12/07 10:54:18;;;;;;;12.88;5.07;;;;;;;;;;4906852;29;20040;-70
2022/12/07 10:56:53;;;;;;;11.15;5.60;;;;;;;;;;4906114;29;20032;-70
2022/12/07 10:59:19;;;;;;;12.85;6.15;;;;;;;;;;4890260;29;20132;-67
2022/12/07 11:01:48;;;;;;;12.40;6.25;;;;;;;;;;4888373;29;20143;-67
2022/12/07 11:04:23;;;;;;;19.92;5.72;;;;;;;;;;4889221;29;20036;-67
2022/12/07 11:07:00;;;;;;;12.88;5.80;;;;;;;;;;4890330;29;20139;-66
2022/12/07 11:09:34;;;;;;;10.57;6.20;;;;;;;;;;4892128;29;20032;-67
2022/12/07 11:12:03;;;;;;;16.65;6.95;;;;;;;;;;4890882;29;20155;-67
2022/12/07 11:14:35;;;;;;;10.65;4.63;;;;;;;;;;4891106;29;20140;-67
2022/12/07 11:17:24;;;;;;;10.68;5.80;;;;;;;;;;4903937;29;20127;-67
2022/12/07 11:19:53;;;;;;;10.05;4.80;;;;;;;;;;4885106;29;20107;-67
2022/12/07 11:22:34;;;;;;;13.98;5.63;;;;;;;;;;4894419;29;20040;-66
2022/12/07 11:25:18;;;;;;;9.68;5.00;;;;;;;;;;4896171;29;20539;-65
2022/12/07 11:27:48;;;;;;;15.57;7.10;;;;;;;;;;4892650;29;20095;-66
2022/12/07 11:30:20;;;;;;;13.82;6.00;;;;;;;;;;4909774;29;20051;-66
2022/12/07 11:33:04;;;;;;;10.20;5.03;;;;;;;;;;4895778;29;20085;-65
2022/12/07 11:35:49;;;;;;;12.85;5.47;;;;;;;;;;4894854;29;20040;-68
2022/12/07 11:38:21;;;;;;;12.52;6.05;;;;;;;;;;4894453;29;20623;-65
2022/12/07 11:40:53;;;;;;;12.23;6.03;;;;;;;;;;4894235;29;20143;-67
2022/12/07 11:43:31;;;;;;;11.32;6.05;;;;;;;;;;4893615;29;20078;-66
2022/12/07 11:46:01;;;;;;;11.65;5.97;;;;;;;;;;4893854;29;20131;-67
2022/12/07 11:48:47;;;;;;;8.80;5.32;;;;;;;;;;4895788;29;20041;-63
2022/12/07 11:51:14;;;;;;;10.55;5.72;;;;;;;;;;4858178;29;20844;-72
2022/12/07 11:53:43;;;;;;;15.27;5.75;;;;;;;;;;4894197;29;20063;-71
2022/12/07 11:56:09;;;;;;;12.68;6.03;;;;;;;;;;4909241;29;20450;-71
2022/12/07 11:58:36;;;;;;;13.07;6.03;;;;;;;;;;4876798;29;20096;-70
2022/12/07 12:01:16;;;;;;;13.93;6.03;;;;;;;;;;4892924;29;20048;-71
2022/12/07 12:03:53;;;;;;;16.05;6.57;;;;;;;;;;4908299;29;20146;-71
2022/12/07 12:06:19;;;;;;;13.88;6.88;;;;;;;;;;4893783;29;20032;-69
2022/12/07 12:08:45;;;;;;;18.77;6.55;;;;;;;;;;4908541;29;20463;-70
2022/12/07 12:11:46;;;;;;;11.98;6.38;;;;;;;;;;4896914;29;20502;-70
2022/12/07 12:14:27;;;;;;;17.65;5.90;;;;;;;;;;4859786;29;20507;-71
2022/12/07 12:17:23;;;;;;;12.60;6.32;;;;;;;;;;4875689;29;20183;-70
2022/12/07 12:20:11;;;;;;;11.98;6.32;;;;;;;;;;4847761;29;20049;-70
2022/12/07 12:22:49;;;;;;;15.60;6.70;;;;;;;;;;4895889;29;20036;-75
2022/12/07 12:25:27;;;;;;;10.55;5.75;;;;;;;;;;4885728;29;20402;-72
2022/12/07 12:27:55;;;;;;;9.40;4.82;;;;;;;;;;4911688;29;20037;-72
2022/12/07 12:30:22;;;;;;;;;;;;;;;;;;4911497;29;20053;-71
2022/12/07 12:32:48;;;;;;;14.60;5.40;;;;;;;;;;4909945;29;20384;-70
2022/12/07 12:35:23;;;;;;;14.77;7.10;;;;;;;;;;4908758;29;20076;-71
2022/12/07 12:37:52;;;;;;;13.93;6.60;;;;;;;;;;4894429;29;20103;-71
2022/12/07 12:40:38;;;;;;;13.40;5.43;;;;;;;;;;4892342;29;20047;-71
2022/12/07 12:43:24;;;;;;;13.65;7.18;;;;;;;;;;4894484;29;20041;-71
2022/12/07 12:46:12;;;;;;;10.60;5.82;;;;;;;;;;4907519;29;20049;-72
2022/12/07 12:48:38;;;;;;;15.43;6.38;;;;;;;;;;4908955;29;20148;-71
2022/12/07 12:51:22;;;;;;;11.38;6.75;;;;;;;;;;4904484;29;20131;-68
2022/12/07 12:53:48;;;;;;;22.02;7.50;;;;;;;;;;4875903;29;20041;-69
2022/12/07 12:56:24;;;;;;;19.48;7.95;;;;;;;;;;4905981;29;20041;-70
2022/12/07 12:59:10;;;;;;;21.33;7.47;;;;;;;;;;4892650;29;20069;-70
2022/12/07 13:01:39;;;;;;;17.25;6.93;;;;;;;;;;4876058;29;20056;-70
2022/12/07 13:04:16;;;;;;;14.10;6.50;;;;;;;;;;4892268;29;20036;-70
2022/12/07 13:06:43;;;;;;;12.82;6.75;;;;;;;;;;4875445;29;20043;-69
2022/12/07 13:09:38;;;;;;;23.85;7.07;;;;;;;;;;4906828;29;20084;-70
2022/12/07 13:12:12;;;;;;;14.57;7.07;;;;;;;;;;4879969;29;20061;-70
2022/12/07 13:14:53;;;;;;;15.20;6.00;;;;;;;;;;4892466;29;20032;-70
2022/12/07 13:17:31;;;;;;;19.35;6.95;;;;;;;;;;4907723;29;20092;-69
2022/12/07 13:19:58;;;;;;;12.02;6.32;;;;;;;;;;4894277;29;20094;-71
2022/12/07 13:22:30;;;;;;;18.23;8.15;;;;;;;;;;4893299;29;20083;-69
2022/12/07 13:25:08;;;;;;;10.32;5.57;;;;;;;;;;4892200;29;20051;-67
2022/12/07 13:27:36;;;;;;;12.90;6.80;;;;;;;;;;4895085;29;20059;-69
2022/12/07 13:30:07;;;;;;;22.92;7.90;;;;;;;;;;4895089;29;20040;-70
2022/12/07 13:32:34;;;;;;;12.75;6.80;;;;;;;;;;4877331;29;20039;-70
2022/12/07 13:34:59;;;;;;;11.60;6.63;;;;;;;;;;4892959;29;20032;-71
2022/12/07 13:37:29;;;;;;;11.82;5.78;;;;;;;;;;4891496;29;20580;-70
2022/12/07 13:39:56;;;;;;;15.85;7.22;;;;;;;;;;4891749;29;20520;-70
2022/12/07 13:42:26;;;;;;;12.82;6.57;;;;;;;;;;4892842;29;20125;-71
2022/12/07 13:44:52;;;;;;;17.60;8.07;;;;;;;;;;4891460;29;20036;-70
2022/12/07 13:47:36;;;;;;;12.30;6.85;;;;;;;;;;4892978;29;20487;-71
2022/12/07 13:50:22;;;;;;;13.52;6.85;;;;;;;;;;4894760;29;20064;-69
2022/12/07 13:52:48;;;;;;;14.75;6.53;;;;;;;;;;4909232;29;20124;-70
2022/12/07 13:55:15;;;;;;;16.75;6.88;;;;;;;;;;4908374;29;20171;-70
2022/12/07 13:57:41;;;;;;;14.55;6.75;;;;;;;;;;4892774;29;20044;-72
2022/12/07 14:00:18;;;;;;;18.77;7.90;;;;;;;;;;4906564;29;20522;-72
2022/12/07 14:02:59;;;;;;;14.50;7.72;;;;;;;;;;4908475;29;20063;-70
2022/12/07 14:05:27;;;;;;;13.23;6.10;;;;;;;;;;4894180;29;20529;-69
2022/12/07 14:07:55;;;;;;;11.20;5.60;;;;;;;;;;4895830;29;20041;-72
2022/12/07 14:10:24;;;;;;;13.50;6.97;;;;;;;;;;4893258;29;20040;-71
2022/12/07 14:12:50;;;;;;;16.88;7.80;;;;;;;;;;4894023;29;20065;-71
2022/12/07 14:15:43;;;;;;;12.98;6.35;;;;;;;;;;4907176;29;20056;-69
2022/12/07 14:18:29;;;;;;;17.52;7.57;;;;;;;;;;4890513;29;20065;-71
2022/12/07 14:21:04;;;;;;;13.15;6.20;;;;;;;;;;4890913;29;20052;-75
2022/12/07 14:23:31;;;;;;;15.27;7.18;;;;;;;;;;4906167;29;20056;-68
2022/12/07 14:26:14;;;;;;;14.95;7.05;;;;;;;;;;4890434;29;20032;-65
2022/12/07 14:28:50;;;;;;;12.18;5.57;;;;;;;;;;4891147;29;20045;-72
2022/12/07 14:31:16;;;;;;;12.15;5.75;;;;;;;;;;4906211;29;20039;-72
2022/12/07 14:33:42;;;;;;;12.98;5.70;;;;;;;;;;4892919;29;20383;-73
2022/12/07 14:36:12;;;;;;;12.50;6.82;;;;;;;;;;4890565;29;20569;-74
2022/12/07 14:38:38;;;;;;;21.20;6.88;;;;;;;;;;4907848;29;20049;-71
2022/12/07 14:44:02;;;;;;;19.52;7.88;;;;;;;;;;4890911;29;20040;-74
2022/12/07 14:46:29;;;;;;;16.38;7.50;;;;;;;;;;4890616;29;20525;-73
2022/12/07 14:48:55;;;;;;;9.38;5.45;;;;;;;;;;4906911;29;20045;-68
2022/12/07 14:51:21;;;;;;;14.50;6.68;;;;;;;;;;4906713;29;20059;-69
2022/12/07 14:53:49;;;;;;;13.02;7.68;;;;;;;;;;4894826;29;20123;-68
2022/12/07 14:56:16;;;;;;;19.95;8.05;;;;;;;;;;4894929;29;20087;-68
2022/12/07 14:58:42;;;;;;;11.40;6.65;;;;;;;;;;4896065;29;20067;-66